Time;durP1;ratioP1;P1;durP2;ratioP2;P2;SDS_P1;SDS_P2;PMS_P1;PMS_P2;Temp;Humidity;BMP_temperature;BMP_pressure;BME280_temperature;BME280_humidity;BME280_pressure;Samples;Min_cycle;Max_cycle;Signal;HPM_P1;HPM_P2
2022/11/10 00:01:57;;;;;;;10.40;4.00;;;10.70;99.90;;;;;;6096108;23;20249;-55
2022/11/10 00:04:22;;;;;;;12.85;3.75;;;10.70;99.90;;;;;;6122469;23;20211;-56
2022/11/10 00:06:48;;;;;;;11.68;3.38;;;10.80;99.90;;;;;;6123295;23;20154;-55
2022/11/10 00:09:14;;;;;;;10.05;3.40;;;10.70;99.90;;;;;;6097522;23;20473;-55
2022/11/10 00:11:41;;;;;;;11.77;2.92;;;10.70;99.90;;;;;;6123211;23;20181;-54
2022/11/10 00:17:03;;;;;;;11.02;3.60;;;10.60;99.90;;;;;;6123042;23;20195;-54
2022/11/10 00:19:30;;;;;;;11.93;4.10;;;10.60;99.90;;;;;;6123286;23;20456;-55
2022/11/10 00:21:55;;;;;;;11.77;3.50;;;10.50;99.90;;;;;;6123547;23;20210;-55
2022/11/10 00:24:22;;;;;;;9.90;3.53;;;10.60;99.90;;;;;;6123164;23;20225;-54
2022/11/10 00:26:48;;;;;;;14.27;3.80;;;10.60;99.90;;;;;;6123241;23;20157;-56
2022/11/10 00:29:14;;;;;;;13.73;3.60;;;10.60;99.90;;;;;;6123188;23;20193;-55
2022/11/10 00:31:40;;;;;;;10.55;3.75;;;10.50;99.90;;;;;;6097377;23;20185;-52
2022/11/10 00:34:09;;;;;;;14.68;2.78;;;10.60;99.90;;;;;;6123158;23;20565;-55
2022/11/10 00:36:35;;;;;;;10.77;3.63;;;10.50;99.90;;;;;;6123144;23;20149;-55
2022/11/10 00:39:01;;;;;;;8.80;3.50;;;10.60;99.90;;;;;;6123100;23;20149;-55
2022/11/10 00:41:26;;;;;;;13.55;3.38;;;10.60;99.90;;;;;;6123051;23;20149;-55
2022/11/10 00:43:52;;;;;;;9.10;3.53;;;10.50;99.90;;;;;;6096969;23;20243;-54
2022/11/10 00:46:18;;;;;;;10.98;3.60;;;10.60;99.90;;;;;;6123283;23;20203;-55
2022/11/10 00:48:44;;;;;;;10.32;3.30;;;10.50;99.90;;;;;;6123117;23;20158;-55
2022/11/10 00:51:22;;;;;;;11.02;3.05;;;10.50;99.90;;;;;;6123057;23;20157;-55
2022/11/10 00:53:49;;;;;;;13.35;3.67;;;10.50;99.90;;;;;;6123237;23;20142;-55
2022/11/10 00:56:14;;;;;;;12.00;3.88;;;10.40;99.90;;;;;;6097358;23;20150;-55
2022/11/10 00:58:41;;;;;;;9.32;3.60;;;10.40;99.90;;;;;;6123032;23;20164;-55
2022/11/10 01:01:07;;;;;;;10.52;3.70;;;10.40;99.90;;;;;;6123061;23;20176;-56
2022/11/10 01:03:33;;;;;;;13.65;2.90;;;10.40;99.90;;;;;;6097212;23;20215;-54
2022/11/10 01:06:10;;;;;;;10.45;4.00;;;10.40;99.90;;;;;;6123064;23;20572;-53
2022/11/10 01:08:37;;;;;;;8.05;2.92;;;10.40;99.90;;;;;;6123103;23;20503;-55
2022/11/10 01:11:06;;;;;;;13.90;3.88;;;10.40;99.90;;;;;;6123008;23;20154;-55
2022/11/10 01:13:32;;;;;;;13.48;2.67;;;10.40;99.90;;;;;;6123124;23;20168;-55
2022/11/10 01:16:03;;;;;;;10.00;2.70;;;10.40;99.90;;;;;;6122509;23;20228;-55
2022/11/10 01:18:29;;;;;;;13.60;4.22;;;10.40;99.90;;;;;;6123012;23;20141;-56
2022/11/10 01:20:55;;;;;;;12.40;4.00;;;10.40;99.90;;;;;;6073201;23;20161;-54
2022/11/10 01:23:20;;;;;;;13.70;3.80;;;10.40;99.90;;;;;;6122957;23;20646;-55
2022/11/10 01:25:46;;;;;;;10.50;3.85;;;10.40;99.90;;;;;;6122981;23;20467;-55
2022/11/10 01:28:11;;;;;;;11.65;3.83;;;10.40;99.90;;;;;;6097292;23;20176;-57
2022/11/10 01:30:37;;;;;;;10.77;3.90;;;10.30;99.90;;;;;;6122645;23;20154;-55
2022/11/10 01:33:03;;;;;;;11.75;3.17;;;10.30;99.90;;;;;;6122934;23;20237;-55
2022/11/10 01:35:28;;;;;;;12.45;3.70;;;10.20;99.90;;;;;;6097151;23;20170;-55
2022/11/10 01:37:54;;;;;;;9.57;3.30;;;10.20;99.90;;;;;;6096909;23;20158;-55
2022/11/10 01:40:20;;;;;;;16.60;3.65;;;10.10;99.90;;;;;;6096898;23;20181;-55
2022/11/10 01:42:54;;;;;;;11.52;3.97;;;10.10;99.90;;;;;;6097016;23;20181;-54
2022/11/10 01:45:22;;;;;;;12.27;4.18;;;10.10;99.90;;;;;;6122534;23;20220;-55
2022/11/10 01:47:58;;;;;;;11.45;3.90;;;10.00;99.90;;;;;;6122604;23;20485;-55
2022/11/10 01:50:29;;;;;;;15.35;4.35;;;10.10;99.90;;;;;;6122484;23;20672;-55
2022/11/10 01:52:58;;;;;;;11.48;4.18;;;9.90;99.90;;;;;;6122864;23;20479;-55
2022/11/10 01:55:25;;;;;;;11.95;4.35;;;9.90;99.90;;;;;;6122794;23;20173;-55
2022/11/10 01:57:51;;;;;;;14.95;4.35;;;10.00;99.90;;;;;;6096716;23;20157;-56
2022/11/10 02:00:18;;;;;;;14.02;4.65;;;10.10;99.90;;;;;;6122833;23;20154;-55
2022/11/10 02:02:48;;;;;;;8.82;3.00;;;10.10;99.90;;;;;;6122773;23;20232;-56
2022/11/10 02:05:14;;;;;;;7.72;3.00;;;10.10;99.90;;;;;;6122843;23;20137;-55
2022/11/10 02:07:41;;;;;;;11.35;2.97;;;10.00;99.90;;;;;;6096794;23;20153;-55
2022/11/10 02:10:15;;;;;;;11.13;4.03;;;10.00;99.90;;;;;;6122447;23;20157;-55
2022/11/10 02:12:41;;;;;;;10.23;3.67;;;10.00;99.90;;;;;;6122512;23;20478;-51
2022/11/10 02:15:11;;;;;;;13.70;4.15;;;10.10;99.90;;;;;;6122125;23;20150;-58
2022/11/10 02:17:37;;;;;;;11.82;4.10;;;10.20;99.90;;;;;;6122656;23;20158;-58
2022/11/10 02:20:06;;;;;;;10.48;3.95;;;10.10;99.90;;;;;;6122689;23;20160;-58
2022/11/10 02:22:32;;;;;;;7.38;3.13;;;10.10;99.90;;;;;;6122653;23;20232;-58
2022/11/10 02:24:59;;;;;;;12.35;3.65;;;10.00;99.90;;;;;;6122727;23;20160;-58
2022/11/10 02:27:24;;;;;;;10.73;3.25;;;9.90;99.90;;;;;;6122165;23;20154;-58
2022/11/10 02:29:50;;;;;;;9.57;3.90;;;9.90;99.90;;;;;;6122645;23;20640;-58
2022/11/10 02:32:16;;;;;;;11.52;4.30;;;10.00;99.90;;;;;;6122561;23;20177;-58
2022/11/10 02:34:42;;;;;;;11.35;3.38;;;9.90;99.90;;;;;;6096960;23;20236;-58
2022/11/10 02:37:09;;;;;;;12.25;3.30;;;9.90;99.90;;;;;;6122682;23;20573;-58
2022/11/10 02:39:35;;;;;;;14.40;4.15;;;10.00;99.90;;;;;;6122484;23;20154;-58
2022/11/10 02:42:01;;;;;;;10.68;3.50;;;10.00;99.90;;;;;;6122210;23;20677;-58
2022/11/10 02:44:26;;;;;;;11.45;3.70;;;9.90;99.90;;;;;;6122343;23;20481;-58
2022/11/10 02:46:52;;;;;;;11.57;3.13;;;9.80;99.90;;;;;;6122219;23;20158;-58
2022/11/10 02:49:18;;;;;;;10.50;4.20;;;9.80;99.90;;;;;;6096629;23;20157;-58
2022/11/10 02:51:43;;;;;;;17.75;4.35;;;9.90;99.90;;;;;;6122072;23;20209;-58
2022/11/10 02:54:09;;;;;;;11.52;3.30;;;9.80;99.90;;;;;;6122672;23;20153;-58
2022/11/10 02:56:35;;;;;;;11.40;4.28;;;9.80;99.90;;;;;;6096665;23;20164;-58
2022/11/10 02:59:01;;;;;;;16.02;3.88;;;9.90;99.90;;;;;;6122414;23;20172;-58
2022/11/10 03:01:26;;;;;;;12.25;3.25;;;9.90;99.90;;;;;;6122488;23;20609;-58
2022/11/10 03:03:52;;;;;;;17.85;3.58;;;9.90;99.90;;;;;;6122401;23;20149;-58
2022/11/10 03:06:18;;;;;;;10.38;3.95;;;9.90;99.90;;;;;;6122432;23;20180;-58
2022/11/10 03:08:44;;;;;;;12.02;4.47;;;9.80;99.90;;;;;;6122379;23;20180;-58
2022/11/10 03:11:10;;;;;;;19.63;4.53;;;9.80;99.90;;;;;;6122325;23;20228;-58
2022/11/10 03:13:35;;;;;;;10.60;3.47;;;9.90;99.90;;;;;;6096235;23;20170;-58
2022/11/10 03:16:01;;;;;;;14.18;3.88;;;9.90;99.90;;;;;;6122301;23;20164;-58
2022/11/10 03:18:27;;;;;;;6.32;3.28;;;9.80;99.90;;;;;;6122325;23;20154;-58
2022/11/10 03:20:52;;;;;;;11.18;4.22;;;9.80;99.90;;;;;;6096498;23;20207;-58
2022/11/10 03:23:19;;;;;;;12.68;4.78;;;9.80;99.90;;;;;;6096496;23;20236;-58
2022/11/10 03:25:45;;;;;;;9.70;3.08;;;9.80;99.90;;;;;;6122248;23;20153;-58
2022/11/10 03:28:11;;;;;;;9.20;3.50;;;9.80;99.90;;;;;;6122124;23;20165;-58
2022/11/10 03:30:37;;;;;;;13.00;4.30;;;10.00;99.90;;;;;;6122204;23;20177;-58
2022/11/10 03:33:03;;;;;;;11.43;3.40;;;10.00;99.90;;;;;;6122102;23;20540;-58
2022/11/10 03:35:29;;;;;;;11.25;4.10;;;10.10;99.90;;;;;;6122146;23;20158;-58
2022/11/10 03:37:54;;;;;;;13.57;3.50;;;10.10;99.90;;;;;;6122195;23;20248;-58
2022/11/10 03:40:20;;;;;;;15.60;3.33;;;10.20;99.90;;;;;;6122912;23;20518;-58
2022/11/10 03:42:46;;;;;;;13.65;3.72;;;10.20;99.90;;;;;;6123297;23;20169;-58
2022/11/10 03:45:14;;;;;;;9.18;3.70;;;10.20;99.90;;;;;;6123690;23;20169;-58
2022/11/10 03:47:40;;;;;;;14.65;5.03;;;10.20;99.90;;;;;;6097441;23;20215;-58
2022/11/10 03:50:07;;;;;;;13.57;4.85;;;10.30;99.90;;;;;;6097324;23;20173;-58
2022/11/10 03:52:33;;;;;;;12.20;4.20;;;10.30;99.90;;;;;;6123302;23;20234;-58
2022/11/10 03:54:58;;;;;;;10.23;4.53;;;10.30;99.90;;;;;;6123019;23;20149;-58
2022/11/10 03:57:24;;;;;;;10.68;4.90;;;10.30;99.90;;;;;;6073433;23;20154;-58
2022/11/10 03:59:50;;;;;;;13.48;4.57;;;10.30;99.90;;;;;;6097512;23;20158;-58
2022/11/10 04:02:15;;;;;;;12.00;3.47;;;10.30;99.90;;;;;;6097503;23;20158;-58
2022/11/10 04:10:09;;;;;;;9.35;3.15;;;10.10;99.90;;;;;;6101116;23;20214;-58
2022/11/10 04:18:23;;;;;;;12.57;4.32;;;10.00;99.90;;;;;;6123093;23;20172;-58
2022/11/10 04:20:51;;;;;;;12.65;4.72;;;10.10;99.90;;;;;;6123124;23;20585;-58
2022/11/10 04:23:25;;;;;;;16.08;4.03;;;10.00;99.90;;;;;;6123219;23;20173;-58
2022/11/10 04:28:51;;;;;;;7.40;3.40;;;9.90;99.90;;;;;;6122932;23;20207;-58
2022/11/10 04:31:19;;;;;;;14.75;4.65;;;9.90;99.90;;;;;;6122811;23;20171;-58
2022/11/10 04:33:46;;;;;;;13.70;4.03;;;9.90;99.90;;;;;;6122750;23;20165;-58
2022/11/10 04:36:14;;;;;;;16.00;3.63;;;9.90;99.90;;;;;;6123022;23;20154;-58
2022/11/10 04:38:39;;;;;;;13.80;4.50;;;9.80;99.90;;;;;;6123196;23;20150;-58
2022/11/10 04:41:06;;;;;;;14.68;4.55;;;9.80;99.90;;;;;;6097455;23;20180;-58
2022/11/10 04:43:33;;;;;;;15.30;4.03;;;9.80;99.90;;;;;;6122870;23;20176;-58
2022/11/10 04:45:59;;;;;;;16.70;5.03;;;9.80;99.90;;;;;;6122962;23;20177;-58
2022/11/10 04:48:26;;;;;;;17.13;4.97;;;9.80;99.90;;;;;;6122764;23;20195;-58
2022/11/10 04:50:51;;;;;;;16.02;5.03;;;9.80;99.90;;;;;;6122629;23;20161;-58
2022/11/10 04:53:18;;;;;;;13.88;3.95;;;9.90;99.90;;;;;;6123197;23;20185;-58
2022/11/10 04:55:44;;;;;;;9.32;3.33;;;9.80;99.90;;;;;;6123125;23;20461;-58
2022/11/10 04:58:10;;;;;;;13.15;4.25;;;9.80;99.90;;;;;;6097293;23;20596;-58
2022/11/10 05:00:37;;;;;;;16.60;6.05;;;9.90;99.90;;;;;;6097483;23;20595;-58
2022/11/10 05:03:05;;;;;;;10.20;3.60;;;9.90;99.90;;;;;;6123079;23;20164;-58
2022/11/10 05:05:31;;;;;;;15.25;5.10;;;9.80;99.90;;;;;;6122957;23;20168;-58
2022/11/10 05:07:57;;;;;;;14.75;4.40;;;9.90;99.90;;;;;;6122537;23;20224;-58
2022/11/10 05:10:23;;;;;;;14.98;3.95;;;9.80;99.90;;;;;;6073016;23;20161;-58
2022/11/10 05:12:51;;;;;;;11.75;4.72;;;9.80;99.90;;;;;;6123178;23;20263;-58
2022/11/10 05:15:17;;;;;;;14.07;3.67;;;9.80;99.90;;;;;;6122386;23;20149;-58
2022/11/10 05:17:42;;;;;;;12.85;3.80;;;9.80;99.90;;;;;;6123068;23;20150;-58
2022/11/10 05:20:08;;;;;;;16.35;3.53;;;9.70;99.90;;;;;;6123036;23;20161;-58
2022/11/10 05:22:34;;;;;;;13.15;4.45;;;9.70;99.90;;;;;;6123111;23;20169;-58
2022/11/10 05:25:00;;;;;;;11.63;3.42;;;9.80;99.90;;;;;;6122590;23;20589;-58
2022/11/10 05:27:25;;;;;;;14.80;3.58;;;9.70;99.90;;;;;;6122849;23;20458;-58
2022/11/10 05:29:51;;;;;;;13.25;3.72;;;9.70;99.90;;;;;;6123117;23;20157;-58
2022/11/10 05:32:16;;;;;;;10.50;2.95;;;9.80;99.90;;;;;;6122895;23;20272;-58
2022/11/10 05:34:42;;;;;;;9.73;3.25;;;9.80;99.90;;;;;;6097198;23;20164;-58
2022/11/10 05:37:08;;;;;;;14.45;3.90;;;9.70;99.90;;;;;;6122976;23;20154;-58
2022/11/10 05:39:33;;;;;;;13.02;3.65;;;9.70;99.90;;;;;;6122553;23;20153;-58
2022/11/10 05:41:59;;;;;;;10.10;3.33;;;9.70;99.90;;;;;;6122584;23;20161;-58
2022/11/10 05:44:25;;;;;;;14.48;3.58;;;9.70;99.90;;;;;;6122558;23;20196;-58
2022/11/10 05:46:50;;;;;;;12.98;3.15;;;9.60;99.90;;;;;;6097494;23;20477;-58
2022/11/10 05:49:16;;;;;;;10.32;3.30;;;9.60;99.90;;;;;;6122528;23;20149;-58
2022/11/10 05:51:42;;;;;;;13.93;4.28;;;9.60;99.90;;;;;;6122762;23;20191;-58
2022/11/10 05:54:07;;;;;;;10.90;2.85;;;9.60;99.90;;;;;;6097247;23;20177;-58
2022/11/10 05:56:33;;;;;;;9.60;3.40;;;9.60;99.90;;;;;;6122824;23;20189;-58
2022/11/10 05:58:59;;;;;;;10.60;3.40;;;9.60;99.90;;;;;;6122855;23;20161;-58
2022/11/10 06:01:24;;;;;;;12.57;3.60;;;9.50;99.90;;;;;;6122535;23;20153;-58
2022/11/10 06:03:50;;;;;;;11.85;3.53;;;9.50;99.90;;;;;;6097020;23;20240;-58
2022/11/10 06:06:16;;;;;;;14.60;4.63;;;9.50;99.90;;;;;;6096755;23;20150;-58
2022/11/10 06:08:42;;;;;;;11.80;3.75;;;9.50;99.90;;;;;;6122678;23;20205;-58
2022/11/10 06:11:08;;;;;;;15.30;3.88;;;9.50;99.90;;;;;;6122649;23;20150;-58
2022/11/10 06:13:33;;;;;;;12.75;3.97;;;9.60;99.90;;;;;;6096917;23;20212;-58
2022/11/10 06:15:59;;;;;;;12.20;3.60;;;9.60;99.90;;;;;;6096992;23;20581;-58
2022/11/10 06:18:24;;;;;;;12.18;3.53;;;9.60;99.90;;;;;;6122741;23;20213;-58
2022/11/10 06:20:50;;;;;;;10.45;3.00;;;9.50;99.90;;;;;;6122728;23;20167;-58
2022/11/10 06:23:16;;;;;;;15.00;3.15;;;9.50;99.90;;;;;;6122690;23;20604;-58
2022/11/10 06:25:41;;;;;;;12.57;3.47;;;9.50;99.90;;;;;;6096972;23;20157;-58
2022/11/10 06:28:08;;;;;;;14.57;3.40;;;9.50;99.90;;;;;;6122344;23;20149;-58
2022/11/10 06:30:36;;;;;;;16.98;3.80;;;9.50;99.90;;;;;;6096578;23;20163;-58
2022/11/10 06:33:02;;;;;;;9.38;3.25;;;9.50;99.90;;;;;;6097163;23;20295;-58
2022/11/10 06:35:28;;;;;;;12.98;4.10;;;9.50;99.90;;;;;;6096598;23;20160;-58
2022/11/10 06:38:13;;;;;;;13.00;4.60;;;9.50;99.90;;;;;;6122406;23;20159;-58
2022/11/10 06:40:39;;;;;;;16.02;3.78;;;9.50;99.90;;;;;;6122940;23;20564;-58
2022/11/10 06:43:05;;;;;;;11.30;3.75;;;9.60;99.90;;;;;;6122647;23;20228;-57
2022/11/10 06:45:30;;;;;;;10.63;3.55;;;9.50;99.90;;;;;;6096977;23;20158;-58
2022/11/10 06:48:10;;;;;;;13.43;3.45;;;9.50;99.90;;;;;;6122546;23;20232;-58
2022/11/10 06:50:35;;;;;;;13.00;4.85;;;9.40;99.90;;;;;;6122583;23;20195;-58
2022/11/10 06:53:01;;;;;;;10.82;4.53;;;9.40;99.90;;;;;;6122462;23;20188;-59
2022/11/10 06:55:28;;;;;;;12.30;4.70;;;9.40;99.90;;;;;;6096756;23;20160;-58
2022/11/10 06:57:54;;;;;;;10.95;3.97;;;9.50;99.90;;;;;;6122311;23;20218;-58
2022/11/10 07:00:20;;;;;;;13.65;3.67;;;9.50;99.90;;;;;;6122415;23;20150;-58
2022/11/10 07:02:45;;;;;;;13.85;4.07;;;9.40;99.90;;;;;;6096779;23;20175;-58
2022/11/10 07:05:14;;;;;;;8.40;3.60;;;9.40;99.90;;;;;;6122394;23;20188;-58
2022/11/10 07:07:40;;;;;;;13.63;3.47;;;9.40;99.90;;;;;;6097232;23;20156;-58
2022/11/10 07:10:06;;;;;;;16.63;4.53;;;9.50;99.90;;;;;;6122434;23;20149;-58
2022/11/10 07:12:32;;;;;;;14.52;4.85;;;9.30;99.90;;;;;;6122166;23;20208;-58
2022/11/10 07:14:57;;;;;;;15.70;4.00;;;9.40;99.90;;;;;;6097092;23;20601;-58
2022/11/10 07:17:24;;;;;;;14.70;4.47;;;9.40;99.90;;;;;;6123567;23;20150;-58
2022/11/10 07:19:50;;;;;;;12.13;4.25;;;9.40;99.90;;;;;;6097765;23;20154;-58
2022/11/10 07:22:15;;;;;;;17.00;4.50;;;9.50;99.90;;;;;;6097256;23;20161;-58
2022/11/10 07:24:41;;;;;;;15.60;4.90;;;9.50;99.90;;;;;;6123525;23;20154;-58
2022/11/10 07:27:07;;;;;;;15.50;6.22;;;9.60;99.90;;;;;;6097322;23;20160;-58
2022/11/10 07:29:33;;;;;;;13.50;4.07;;;9.60;99.90;;;;;;6097635;23;20173;-58
2022/11/10 07:31:58;;;;;;;15.48;6.45;;;9.60;99.90;;;;;;6123319;23;20493;-58
2022/11/10 07:34:24;;;;;;;18.15;4.97;;;9.60;99.90;;;;;;6123327;23;20161;-58
2022/11/10 07:36:49;;;;;;;16.98;4.80;;;9.60;99.90;;;;;;6123451;23;20585;-58
2022/11/10 07:39:15;;;;;;;18.23;4.72;;;9.50;99.90;;;;;;6097473;23;20158;-58
2022/11/10 07:41:41;;;;;;;15.90;5.05;;;9.70;99.90;;;;;;6097573;23;20177;-58
2022/11/10 07:44:06;;;;;;;19.50;6.00;;;9.70;99.90;;;;;;6097288;23;20239;-58
2022/11/10 07:46:32;;;;;;;19.10;5.72;;;9.80;99.90;;;;;;6097261;23;20157;-58
2022/11/10 07:48:57;;;;;;;15.55;4.10;;;9.80;99.90;;;;;;6123368;23;20150;-58
2022/11/10 07:51:25;;;;;;;15.95;5.70;;;9.90;99.90;;;;;;6122889;23;20153;-58
2022/11/10 07:53:51;;;;;;;14.90;5.35;;;9.90;99.90;;;;;;6123028;23;20484;-58
2022/11/10 07:56:17;;;;;;;15.13;5.25;;;10.00;99.90;;;;;;6123333;23;20174;-58
2022/11/10 07:58:42;;;;;;;14.05;4.20;;;10.00;99.90;;;;;;6123345;23;20236;-58
2022/11/10 08:01:09;;;;;;;18.95;4.68;;;10.00;99.90;;;;;;6122948;23;20512;-58
2022/11/10 08:03:34;;;;;;;16.50;4.68;;;10.10;99.90;;;;;;6123041;23;20192;-58
2022/11/10 08:06:00;;;;;;;15.55;4.28;;;10.10;99.90;;;;;;6123309;23;20161;-58
2022/11/10 08:08:26;;;;;;;15.35;3.60;;;10.10;99.90;;;;;;6122949;23;20484;-58
2022/11/10 08:10:51;;;;;;;16.13;5.60;;;10.20;99.90;;;;;;6097446;23;20654;-58
2022/11/10 08:13:17;;;;;;;15.30;3.78;;;10.30;99.90;;;;;;6097271;23;20415;-58
2022/11/10 08:15:43;;;;;;;10.38;3.38;;;10.30;99.90;;;;;;6123170;23;20152;-58
2022/11/10 08:18:18;;;;;;;11.68;4.72;;;10.40;99.90;;;;;;6123471;23;20608;-58
2022/11/10 08:20:44;;;;;;;14.32;5.30;;;10.50;99.90;;;;;;6123252;23;20236;-58
2022/11/10 08:23:10;;;;;;;12.38;4.88;;;10.50;99.90;;;;;;6123226;23;20244;-58
2022/11/10 08:25:37;;;;;;;16.40;4.68;;;10.50;99.90;;;;;;6123106;23;20651;-58
2022/11/10 08:28:08;;;;;;;13.75;4.82;;;10.50;99.90;;;;;;6123212;23;20177;-58
2022/11/10 08:30:36;;;;;;;11.05;4.70;;;10.70;99.90;;;;;;6123164;23;20142;-58
2022/11/10 08:33:04;;;;;;;13.57;4.55;;;10.70;99.90;;;;;;6123094;23;20205;-58
2022/11/10 08:35:33;;;;;;;11.35;4.63;;;10.70;99.90;;;;;;6123189;23;20146;-58
2022/11/10 08:38:06;;;;;;;16.60;4.60;;;10.70;99.90;;;;;;6123208;23;20149;-58
2022/11/10 08:40:32;;;;;;;14.07;4.93;;;10.80;99.90;;;;;;6123179;23;20149;-58
2022/11/10 08:42:58;;;;;;;13.38;5.45;;;10.80;99.90;;;;;;6122931;23;20158;-58
2022/11/10 08:45:24;;;;;;;14.18;4.68;;;10.80;99.90;;;;;;6097163;23;20177;-58
2022/11/10 08:48:01;;;;;;;10.93;4.20;;;10.90;99.90;;;;;;6123119;23;20584;-58
2022/11/10 08:50:28;;;;;;;11.18;3.50;;;11.00;99.90;;;;;;6123095;23;20149;-58
2022/11/10 08:52:54;;;;;;;12.65;4.38;;;11.10;99.90;;;;;;6122949;23;20181;-58
2022/11/10 08:55:20;;;;;;;12.95;4.93;;;11.20;99.90;;;;;;6097391;23;20158;-58
2022/11/10 08:57:47;;;;;;;13.07;4.63;;;11.10;99.90;;;;;;6097090;23;20157;-58
2022/11/10 09:00:14;;;;;;;16.85;5.38;;;11.20;99.90;;;;;;6123210;23;20158;-58
2022/11/10 09:02:40;;;;;;;12.45;4.60;;;11.30;99.90;;;;;;6122993;23;20154;-58
2022/11/10 09:05:06;;;;;;;15.23;4.85;;;11.30;99.90;;;;;;6122654;23;20161;-58
2022/11/10 09:07:41;;;;;;;12.02;5.05;;;11.40;99.90;;;;;;6097395;23;20167;-58
2022/11/10 09:10:07;;;;;;;15.50;5.82;;;11.40;99.90;;;;;;6122788;23;20137;-58
2022/11/10 09:12:32;;;;;;;15.40;4.65;;;11.50;99.90;;;;;;6122407;23;20264;-58
2022/11/10 09:14:58;;;;;;;11.45;4.10;;;11.60;99.90;;;;;;6097250;23;20177;-58
2022/11/10 09:17:24;;;;;;;14.90;5.05;;;11.60;99.90;;;;;;6122994;23;20185;-58
2022/11/10 09:19:49;;;;;;;10.82;5.00;;;11.60;99.90;;;;;;6122965;23;20149;-58
2022/11/10 09:22:15;;;;;;;12.13;4.80;;;11.70;99.90;;;;;;6097045;23;20643;-58
2022/11/10 09:24:41;;;;;;;11.48;4.70;;;11.80;99.90;;;;;;6123029;23;20158;-58
2022/11/10 09:27:06;;;;;;;11.90;4.75;;;11.90;99.90;;;;;;6123004;23;20150;-58
2022/11/10 09:29:32;;;;;;;10.27;4.22;;;11.90;99.90;;;;;;6122963;23;20204;-58
2022/11/10 09:31:57;;;;;;;11.40;4.40;;;12.00;99.90;;;;;;6122836;23;20189;-58
2022/11/10 09:34:23;;;;;;;11.23;4.40;;;12.00;99.90;;;;;;6122919;23;20181;-58
2022/11/10 09:36:49;;;;;;;10.88;4.45;;;12.10;99.90;;;;;;6122513;23;20150;-58
2022/11/10 09:39:14;;;;;;;13.48;4.88;;;12.10;99.90;;;;;;6098786;23;20165;-58
2022/11/10 09:41:42;;;;;;;9.93;4.25;;;12.20;99.90;;;;;;6122896;23;20283;-58
2022/11/10 09:44:15;;;;;;;13.40;4.78;;;12.30;99.90;;;;;;6122695;23;20166;-58
2022/11/10 09:46:48;;;;;;;11.43;4.15;;;12.40;99.90;;;;;;6123000;23;20224;-58
2022/11/10 09:49:35;;;;;;;13.20;4.10;;;12.50;99.90;;;;;;6123030;23;20150;-58
2022/11/10 09:52:02;;;;;;;10.30;3.90;;;12.60;99.90;;;;;;6122809;23;20685;-58
2022/11/10 09:54:44;;;;;;;10.98;4.10;;;12.50;99.90;;;;;;6122752;23;20157;-58
2022/11/10 09:57:14;;;;;;;10.13;4.07;;;12.50;99.90;;;;;;6122866;23;20133;-58
2022/11/10 09:59:42;;;;;;;11.25;3.90;;;12.50;99.90;;;;;;6122699;23;20203;-58
2022/11/10 10:02:23;;;;;;;10.35;3.70;;;12.60;99.90;;;;;;6122747;23;20177;-58
2022/11/10 10:05:26;;;;;;;11.88;4.20;;;12.70;99.90;;;;;;6122904;23;20174;-58
2022/11/10 10:08:04;;;;;;;11.32;3.25;;;12.80;99.90;;;;;;6097023;23;20519;-58
2022/11/10 10:10:59;;;;;;;11.40;3.78;;;12.80;99.90;;;;;;6122796;23;20670;-58
2022/11/10 10:13:54;;;;;;;10.70;3.83;;;12.70;99.90;;;;;;6122797;23;20231;-58
2022/11/10 10:16:41;;;;;;;11.27;3.97;;;12.70;99.90;;;;;;6122447;23;20134;-58
2022/11/10 10:19:46;;;;;;;9.65;3.17;;;12.70;99.90;;;;;;6122910;23;20161;-58
2022/11/10 10:22:43;;;;;;;10.27;3.50;;;12.70;99.90;;;;;;6122853;23;20272;-58
2022/11/10 10:25:17;;;;;;;7.07;3.20;;;12.70;99.90;;;;;;6122792;23;20488;-58
2022/11/10 10:27:45;;;;;;;9.02;3.17;;;12.80;99.90;;;;;;6122803;23;20133;-58
2022/11/10 10:30:14;;;;;;;7.57;3.67;;;12.90;99.90;;;;;;6123070;23;20505;-58
2022/11/10 10:32:41;;;;;;;12.10;3.58;;;12.90;99.90;;;;;;6122552;23;20189;-58
2022/11/10 10:35:15;;;;;;;8.63;3.72;;;13.10;99.90;;;;;;6122615;23;20154;-58
2022/11/10 10:37:51;;;;;;;9.88;3.60;;;13.30;99.90;;;;;;6122952;23;20602;-58
2022/11/10 10:40:19;;;;;;;7.97;3.35;;;13.40;99.90;;;;;;6122876;23;20657;-58
2022/11/10 10:42:45;;;;;;;10.05;4.05;;;13.50;99.90;;;;;;6122231;23;20458;-58
2022/11/10 10:45:23;;;;;;;11.25;3.45;;;13.70;99.90;;;;;;6122470;23;20169;-58
2022/11/10 10:47:54;;;;;;;10.80;4.53;;;13.80;99.90;;;;;;6122448;23;20158;-58
2022/11/10 10:50:26;;;;;;;9.07;3.55;;;13.60;99.90;;;;;;6122705;23;20144;-58
2022/11/10 10:53:11;;;;;;;10.57;3.50;;;13.60;99.90;;;;;;6122298;23;20184;-58
2022/11/10 10:55:37;;;;;;;9.57;3.40;;;13.60;99.90;;;;;;6096679;23;20176;-58
2022/11/10 10:58:27;;;;;;;7.30;2.72;;;13.60;99.90;;;;;;6122149;23;20153;-58
2022/11/10 11:01:14;;;;;;;7.95;2.92;;;13.60;99.90;;;;;;6096694;23;20516;-58
2022/11/10 11:03:45;;;;;;;8.55;2.80;;;13.50;99.90;;;;;;6122575;23;20249;-58
2022/11/10 11:06:14;;;;;;;7.25;3.05;;;13.60;99.90;;;;;;6122583;23;20153;-58
2022/11/10 11:08:52;;;;;;;7.05;2.90;;;13.60;99.90;;;;;;6122388;23;20146;-58
2022/11/10 11:11:22;;;;;;;5.03;2.95;;;13.60;99.90;;;;;;6122573;23;20595;-57
2022/11/10 11:13:47;;;;;;;8.48;2.92;;;13.70;99.90;;;;;;6073303;23;20215;-58
2022/11/10 11:16:13;;;;;;;8.05;3.30;;;13.80;99.90;;;;;;6123865;23;20165;-58
2022/11/10 11:18:39;;;;;;;7.68;3.00;;;13.80;99.90;;;;;;6122297;23;20154;-58
2022/11/10 11:21:08;;;;;;;7.63;2.63;;;13.80;99.90;;;;;;6096420;23;20165;-58
2022/11/10 11:23:41;;;;;;;7.70;2.90;;;13.90;99.90;;;;;;6122222;23;20161;-58
2022/11/10 11:26:16;;;;;;;8.38;3.00;;;13.80;99.90;;;;;;6122456;23;20142;-58
2022/11/10 11:28:45;;;;;;;6.80;2.83;;;13.90;99.90;;;;;;6122188;23;20580;-58
2022/11/10 11:31:39;;;;;;;7.85;2.65;;;13.90;99.90;;;;;;6096356;23;20658;-58
2022/11/10 11:34:20;;;;;;;10.55;3.15;;;14.00;99.90;;;;;;6122282;23;20240;-58
2022/11/10 11:37:18;;;;;;;7.78;2.70;;;14.20;99.90;;;;;;6122467;23;20149;-58
2022/11/10 11:40:19;;;;;;;10.25;3.00;;;14.40;99.90;;;;;;6121746;23;20581;-58
2022/11/10 11:43:17;;;;;;;7.05;2.50;;;14.50;99.90;;;;;;6097634;23;20240;-58
2022/11/10 11:45:51;;;;;;;10.27;3.10;;;14.50;99.90;;;;;;6102880;23;20662;-58
2022/11/10 11:48:42;;;;;;;9.20;2.67;;;14.40;99.90;;;;;;6122084;23;20569;-58
2022/11/10 11:51:15;;;;;;;8.15;2.70;;;14.40;99.90;;;;;;6122198;23;20138;-58
2022/11/10 11:54:02;;;;;;;9.32;2.60;;;14.40;99.90;;;;;;6121972;23;20181;-57
2022/11/10 11:56:33;;;;;;;10.05;2.95;;;14.30;99.90;;;;;;6122124;23;20207;-58
2022/11/10 11:59:24;;;;;;;7.00;2.78;;;14.30;99.90;;;;;;6121974;23;20152;-58
2022/11/10 12:01:56;;;;;;;8.73;2.80;;;14.50;99.90;;;;;;6123558;23;20169;-58
2022/11/10 12:04:47;;;;;;;6.82;2.75;;;14.50;99.90;;;;;;6123258;23;20153;-58
2022/11/10 12:07:43;;;;;;;9.98;2.58;;;14.40;99.90;;;;;;6123380;23;20138;-58
2022/11/10 12:10:18;;;;;;;7.90;2.65;;;14.50;99.90;;;;;;6123652;23;20232;-58
2022/11/10 12:13:10;;;;;;;7.63;2.33;;;14.70;99.90;;;;;;6123195;23;20196;-57
2022/11/10 12:15:55;;;;;;;5.50;2.22;;;14.70;99.90;;;;;;6091427;23;20157;-58
2022/11/10 12:18:28;;;;;;;5.30;2.20;;;14.70;99.90;;;;;;6097370;23;20184;-58
2022/11/10 12:20:53;;;;;;;7.72;2.30;;;14.80;99.90;;;;;;6123515;23;20161;-58
2022/11/10 12:24:01;;;;;;;6.25;2.65;;;14.90;99.90;;;;;;6123204;23;20449;-58
2022/11/10 12:27:01;;;;;;;7.15;2.63;;;15.00;99.90;;;;;;6123737;23;20236;-58
2022/11/10 12:29:44;;;;;;;7.30;2.22;;;15.00;99.90;;;;;;6097525;23;20222;-58
2022/11/10 12:32:14;;;;;;;6.70;1.95;;;14.80;99.90;;;;;;6123117;23;20181;-58
2022/11/10 12:34:46;;;;;;;6.10;2.05;;;14.80;99.90;;;;;;6123125;23;20157;-58
2022/11/10 12:37:37;;;;;;;6.32;2.47;;;14.90;99.90;;;;;;6123214;23;20138;-58
2022/11/10 12:40:31;;;;;;;6.38;2.30;;;15.00;99.90;;;;;;6122990;23;20160;-58
2022/11/10 12:43:03;;;;;;;7.88;2.60;;;15.00;99.90;;;;;;6123265;23;20150;-58
2022/11/10 12:45:33;;;;;;;7.50;2.58;;;15.10;99.90;;;;;;6097429;23;20185;-58
2022/11/10 12:47:59;;;;;;;7.45;2.35;;;15.10;99.90;;;;;;6123442;23;20170;-58
2022/11/10 12:51:13;;;;;;;4.70;2.13;;;15.00;99.90;;;;;;6123166;23;20168;-58
2022/11/10 12:53:41;;;;;;;6.93;2.40;;;15.00;99.90;;;;;;6033670;23;20551;-58
2022/11/10 12:56:12;;;;;;;10.73;2.65;;;15.10;99.90;;;;;;6105652;23;20158;-58
2022/11/10 12:58:37;;;;;;;5.90;1.92;;;15.00;99.90;;;;;;6122869;23;20138;-58
2022/11/10 13:01:16;;;;;;;5.95;2.10;;;15.00;99.90;;;;;;6123013;23;20589;-58
2022/11/10 13:03:57;;;;;;;6.15;2.22;;;15.00;99.90;;;;;;6123044;23;20184;-58
2022/11/10 13:06:30;;;;;;;9.05;2.72;;;15.00;99.90;;;;;;6097340;23;20169;-58
2022/11/10 13:08:57;;;;;;;6.22;2.10;;;15.00;99.90;;;;;;6122621;23;20680;-58
2022/11/10 13:11:35;;;;;;;5.00;2.00;;;15.10;99.90;;;;;;6122335;23;20150;-58
2022/11/10 13:14:27;;;;;;;4.10;1.70;;;15.10;99.90;;;;;;6123446;23;20583;-58